Time;durP1;ratioP1;P1;durP2;ratioP2;P2;SDS_P1;SDS_P2;PMS_P1;PMS_P2;Temp;Humidity;BMP_temperature;BMP_pressure;BME280_temperature;BME280_humidity;BME280_pressure;Samples;Min_cycle;Max_cycle;Signal;HPM_P1;HPM_P2
2023/12/03 00:02:20;;;;;;;46.13;26.63;;;-0.10;99.90;;;;;;5116443;27;20258;-69
2023/12/03 00:04:48;;;;;;;43.50;26.17;;;-0.10;99.90;;;;;;5134782;27;20189;-68
2023/12/03 00:07:14;;;;;;;41.60;28.57;;;-0.10;99.90;;;;;;5134857;27;20272;-69
2023/12/03 00:09:40;;;;;;;46.23;27.53;;;-0.10;99.90;;;;;;5134499;27;20654;-68
2023/12/03 00:12:07;;;;;;;46.83;27.40;;;-0.10;99.90;;;;;;5134619;27;20256;-68
2023/12/03 00:14:33;;;;;;;46.57;27.87;;;-0.10;99.90;;;;;;5134176;27;20692;-68
2023/12/03 00:16:58;;;;;;;48.23;28.40;;;-0.10;99.90;;;;;;5134386;27;20199;-68
2023/12/03 00:19:25;;;;;;;50.20;27.83;;;-0.10;99.90;;;;;;5134667;27;20168;-68
2023/12/03 00:21:51;;;;;;;44.43;27.03;;;-0.10;99.90;;;;;;5116036;27;20172;-68
2023/12/03 00:24:17;;;;;;;48.60;27.60;;;-0.10;99.90;;;;;;5134385;27;20171;-68
2023/12/03 00:26:42;;;;;;;41.17;25.60;;;0.00;99.90;;;;;;5115919;27;20673;-68
2023/12/03 00:29:10;;;;;;;45.83;28.57;;;-0.10;99.90;;;;;;5115873;27;20183;-68
2023/12/03 00:31:36;;;;;;;48.73;28.43;;;-0.10;99.90;;;;;;5115491;27;20175;-68
2023/12/03 00:34:05;;;;;;;44.30;27.63;;;-0.10;99.90;;;;;;5134201;27;20200;-68
2023/12/03 00:36:32;;;;;;;45.33;27.60;;;0.00;99.90;;;;;;5115898;27;20312;-68
2023/12/03 00:38:58;;;;;;;45.20;27.00;;;0.00;99.90;;;;;;5134414;27;20186;-68
2023/12/03 00:41:24;;;;;;;44.37;27.97;;;-0.10;99.90;;;;;;5134156;27;20168;-68
2023/12/03 00:43:50;;;;;;;43.17;27.03;;;-0.10;99.90;;;;;;5115732;27;20657;-69
2023/12/03 00:46:19;;;;;;;42.97;27.50;;;-0.10;99.90;;;;;;5133983;27;20191;-68
2023/12/03 00:48:46;;;;;;;46.07;27.90;;;-0.10;99.90;;;;;;5134123;27;20215;-68
2023/12/03 00:51:13;;;;;;;43.27;27.67;;;-0.10;99.90;;;;;;5134143;27;20171;-68
2023/12/03 00:53:39;;;;;;;50.70;29.77;;;-0.10;99.90;;;;;;5115628;28;20207;-68
2023/12/03 00:56:06;;;;;;;50.17;28.93;;;-0.10;99.90;;;;;;5134023;27;20163;-68
2023/12/03 00:58:31;;;;;;;45.27;27.30;;;-0.10;99.90;;;;;;5133842;28;20252;-68
2023/12/03 01:00:57;;;;;;;48.37;28.67;;;-0.10;99.90;;;;;;5140038;27;20630;-68
2023/12/03 01:03:23;;;;;;;40.70;25.40;;;-0.10;99.90;;;;;;5140858;27;20172;-68
2023/12/03 01:05:49;;;;;;;48.47;29.50;;;-0.10;99.90;;;;;;5140829;27;20566;-68
2023/12/03 01:08:14;;;;;;;52.77;28.73;;;-0.10;99.90;;;;;;5122536;27;20282;-67
2023/12/03 01:10:40;;;;;;;45.53;27.50;;;0.00;99.90;;;;;;5122308;27;20187;-68
2023/12/03 01:13:06;;;;;;;50.47;29.20;;;0.00;99.90;;;;;;5140717;27;20673;-68
2023/12/03 01:15:32;;;;;;;47.47;27.63;;;0.00;99.90;;;;;;5122112;27;20541;-68
2023/12/03 01:17:58;;;;;;;45.20;27.17;;;0.00;99.90;;;;;;5122240;27;20304;-68
2023/12/03 01:20:23;;;;;;;48.77;27.80;;;0.00;99.90;;;;;;5140728;27;20168;-68
2023/12/03 01:22:49;;;;;;;46.60;28.50;;;0.00;99.90;;;;;;5141243;27;20659;-68
2023/12/03 01:25:15;;;;;;;44.27;27.57;;;0.00;99.90;;;;;;5140744;27;20175;-68
2023/12/03 01:27:41;;;;;;;45.60;28.43;;;0.00;99.90;;;;;;5140522;27;20187;-68
2023/12/03 01:30:07;;;;;;;40.97;27.13;;;0.00;99.90;;;;;;5140432;27;20195;-68
2023/12/03 01:32:33;;;;;;;42.37;28.13;;;0.00;99.90;;;;;;5140515;27;20172;-68
2023/12/03 01:34:58;;;;;;;43.17;28.23;;;0.00;99.90;;;;;;5140691;27;20579;-68
2023/12/03 01:37:24;;;;;;;43.37;28.27;;;0.00;99.90;;;;;;5140539;27;20235;-68
2023/12/03 01:39:50;;;;;;;45.00;27.10;;;0.00;99.90;;;;;;5140702;27;20176;-68
2023/12/03 01:42:16;;;;;;;44.47;25.37;;;0.00;99.90;;;;;;5122121;27;20176;-68
2023/12/03 01:44:42;;;;;;;50.40;28.73;;;0.00;99.90;;;;;;5140388;27;20255;-67
2023/12/03 01:47:08;;;;;;;45.03;26.87;;;0.00;99.90;;;;;;5140556;27;20249;-68
2023/12/03 01:49:34;;;;;;;45.13;27.83;;;0.00;99.90;;;;;;5140749;27;20176;-68
2023/12/03 01:52:01;;;;;;;45.73;27.83;;;0.00;99.90;;;;;;5140465;27;20178;-68
2023/12/03 01:54:32;;;;;;;45.87;28.53;;;0.00;99.90;;;;;;5140272;27;20191;-68
2023/12/03 01:56:58;;;;;;;49.03;28.60;;;0.00;99.90;;;;;;5140768;27;20191;-68
2023/12/03 01:59:24;;;;;;;42.67;26.93;;;0.00;99.90;;;;;;5121914;27;20695;-68
2023/12/03 02:01:50;;;;;;;41.67;26.30;;;0.10;99.90;;;;;;5140156;27;20593;-68
2023/12/03 02:04:15;;;;;;;46.13;26.60;;;0.00;99.90;;;;;;5121824;27;20228;-68
2023/12/03 02:06:41;;;;;;;40.23;27.93;;;0.10;99.90;;;;;;5140514;27;20274;-67
2023/12/03 02:09:07;;;;;;;43.03;24.43;;;0.10;99.90;;;;;;5140491;27;20179;-68
2023/12/03 02:11:34;;;;;;;40.20;26.43;;;0.00;99.90;;;;;;5137272;27;20175;-68
2023/12/03 02:14:02;;;;;;;40.73;27.47;;;0.00;99.90;;;;;;5137272;27;20679;-68
2023/12/03 02:16:30;;;;;;;42.63;26.67;;;0.00;99.90;;;;;;5136725;27;20175;-67
2023/12/03 02:18:56;;;;;;;40.40;26.57;;;0.00;99.90;;;;;;5137367;27;20701;-67
2023/12/03 02:21:22;;;;;;;48.20;29.20;;;0.00;99.90;;;;;;5136987;27;20172;-67
2023/12/03 02:23:48;;;;;;;45.90;28.30;;;0.00;99.90;;;;;;5118874;27;20696;-67
2023/12/03 02:26:14;;;;;;;38.47;25.93;;;0.00;99.90;;;;;;5137293;27;20265;-67
2023/12/03 02:28:40;;;;;;;48.73;28.60;;;0.00;99.90;;;;;;5136605;27;20196;-68
2023/12/03 02:31:06;;;;;;;47.00;27.17;;;0.00;99.90;;;;;;5136558;27;20180;-68
2023/12/03 02:33:31;;;;;;;44.27;27.57;;;0.00;99.90;;;;;;5136564;27;20550;-68
2023/12/03 02:35:58;;;;;;;43.00;26.57;;;0.00;99.90;;;;;;5118221;27;20228;-67
2023/12/03 02:38:24;;;;;;;48.23;28.67;;;0.00;99.90;;;;;;5136365;27;20245;-66
2023/12/03 02:40:49;;;;;;;46.23;29.30;;;0.00;99.90;;;;;;5118165;27;20172;-67
2023/12/03 02:43:15;;;;;;;45.33;26.17;;;0.00;99.90;;;;;;5136516;27;20262;-67
2023/12/03 02:45:41;;;;;;;44.50;27.33;;;0.00;99.90;;;;;;5136310;27;20199;-68
2023/12/03 02:48:07;;;;;;;44.10;27.03;;;0.00;99.90;;;;;;5136295;27;20199;-68
2023/12/03 02:50:32;;;;;;;46.60;26.47;;;0.00;99.90;;;;;;5118250;27;20218;-67
2023/12/03 02:52:58;;;;;;;41.27;27.50;;;0.00;99.90;;;;;;5136180;27;20203;-68
2023/12/03 02:55:25;;;;;;;47.27;27.90;;;0.00;99.90;;;;;;5136169;27;20700;-68
2023/12/03 02:57:51;;;;;;;46.07;27.17;;;0.00;99.90;;;;;;5136134;27;20223;-67
2023/12/03 03:00:17;;;;;;;44.37;27.83;;;0.00;99.90;;;;;;5135830;27;20706;-67
2023/12/03 03:02:43;;;;;;;45.43;27.17;;;0.00;99.90;;;;;;5136713;27;20183;-68
2023/12/03 03:05:09;;;;;;;44.00;26.87;;;0.00;99.90;;;;;;5136684;27;20167;-68
2023/12/03 03:07:34;;;;;;;43.60;28.33;;;0.00;99.90;;;;;;5135971;27;20275;-68
2023/12/03 03:10:00;;;;;;;45.70;29.30;;;0.00;99.90;;;;;;5135917;27;20172;-68
2023/12/03 03:12:26;;;;;;;46.17;28.30;;;0.00;99.90;;;;;;5117345;27;20557;-68
2023/12/03 03:14:52;;;;;;;43.10;28.67;;;0.00;99.90;;;;;;5135678;27;20196;-68
2023/12/03 03:17:18;;;;;;;47.90;29.97;;;0.00;99.90;;;;;;5117105;27;20199;-68
2023/12/03 03:19:43;;;;;;;46.50;28.47;;;0.10;99.90;;;;;;5135715;27;20221;-68
2023/12/03 03:22:13;;;;;;;52.93;28.73;;;0.10;99.90;;;;;;5135307;27;20201;-68
2023/12/03 03:24:40;;;;;;;48.27;29.23;;;0.10;99.90;;;;;;5135570;27;20207;-68
2023/12/03 03:27:06;;;;;;;47.07;28.90;;;0.10;99.90;;;;;;5135493;27;20195;-68
2023/12/03 03:29:33;;;;;;;42.83;27.10;;;0.10;99.90;;;;;;5136097;27;20254;-68
2023/12/03 03:32:00;;;;;;;49.17;28.30;;;0.10;99.90;;;;;;5135186;27;20186;-68
2023/12/03 03:34:25;;;;;;;45.37;27.43;;;0.10;99.90;;;;;;5116854;27;20253;-68
2023/12/03 03:36:51;;;;;;;53.70;29.73;;;0.10;99.90;;;;;;5135438;27;20192;-68
2023/12/03 03:39:17;;;;;;;47.80;28.37;;;0.20;99.90;;;;;;5135597;27;20241;-68
2023/12/03 03:41:42;;;;;;;50.73;26.73;;;0.20;99.90;;;;;;5135254;27;20183;-68
2023/12/03 03:44:08;;;;;;;45.70;27.70;;;0.20;99.90;;;;;;5135235;27;20267;-68
2023/12/03 03:46:34;;;;;;;42.83;28.53;;;0.20;99.90;;;;;;5135106;27;20202;-68
2023/12/03 03:49:00;;;;;;;46.80;29.20;;;0.20;99.90;;;;;;5116700;27;20240;-68
2023/12/03 03:51:26;;;;;;;46.70;29.03;;;0.20;99.90;;;;;;5135460;27;20539;-67
2023/12/03 03:53:52;;;;;;;48.30;29.37;;;0.20;99.90;;;;;;5135599;27;20199;-67
2023/12/03 03:56:18;;;;;;;52.40;29.87;;;0.20;99.90;;;;;;5135817;27;20178;-68
2023/12/03 03:58:43;;;;;;;50.93;29.33;;;0.20;99.90;;;;;;5134881;27;20199;-68
2023/12/03 04:01:09;;;;;;;50.00;29.50;;;0.20;99.90;;;;;;5134780;27;20176;-68
2023/12/03 04:03:36;;;;;;;51.50;28.53;;;0.20;99.90;;;;;;5116484;27;20183;-68
2023/12/03 04:06:05;;;;;;;49.33;29.83;;;0.20;99.90;;;;;;5135381;27;20324;-68
2023/12/03 04:08:31;;;;;;;54.47;30.93;;;0.20;99.90;;;;;;5116095;27;20277;-68
2023/12/03 04:10:57;;;;;;;45.97;29.87;;;0.20;99.90;;;;;;5135038;27;20623;-68
2023/12/03 04:13:25;;;;;;;51.00;30.80;;;0.30;99.90;;;;;;5134561;27;20286;-68
2023/12/03 04:15:51;;;;;;;47.00;29.77;;;0.30;99.90;;;;;;5115932;27;20176;-67
2023/12/03 04:18:17;;;;;;;53.13;30.17;;;0.30;99.90;;;;;;5116067;27;20286;-67
2023/12/03 04:20:42;;;;;;;53.17;31.03;;;0.30;99.90;;;;;;5134563;27;20247;-68
2023/12/03 04:23:08;;;;;;;58.10;30.00;;;0.40;99.90;;;;;;5134777;27;20191;-68
2023/12/03 04:25:34;;;;;;;45.13;28.40;;;0.40;99.90;;;;;;5134454;27;20251;-68
2023/12/03 04:28:01;;;;;;;49.87;28.63;;;0.40;99.90;;;;;;5134594;27;20191;-67
2023/12/03 04:30:27;;;;;;;50.30;29.00;;;0.40;99.90;;;;;;5134355;27;20180;-67
2023/12/03 04:32:53;;;;;;;46.67;28.03;;;0.40;99.90;;;;;;5134295;27;20228;-68
2023/12/03 04:35:18;;;;;;;48.00;28.30;;;0.40;99.90;;;;;;5134017;27;20190;-68
2023/12/03 04:37:45;;;;;;;52.13;30.63;;;0.50;99.90;;;;;;5134228;27;20611;-68
2023/12/03 04:40:11;;;;;;;48.17;29.07;;;0.40;99.90;;;;;;5134188;27;20172;-68
2023/12/03 04:42:37;;;;;;;45.87;28.37;;;0.40;99.90;;;;;;5134267;27;20196;-68
2023/12/03 04:45:03;;;;;;;47.73;27.90;;;0.40;99.90;;;;;;5134363;27;20206;-68
2023/12/03 04:47:29;;;;;;;54.53;29.27;;;0.50;99.90;;;;;;5133774;27;20203;-68
2023/12/03 04:49:55;;;;;;;53.83;30.30;;;0.40;99.90;;;;;;5116036;28;20184;-68
2023/12/03 04:52:20;;;;;;;51.70;30.80;;;0.40;99.90;;;;;;5134376;27;20176;-68
2023/12/03 04:54:46;;;;;;;51.37;28.47;;;0.40;99.90;;;;;;5134300;27;20202;-68
2023/12/03 04:57:12;;;;;;;50.33;28.43;;;0.40;99.90;;;;;;5134012;27;20195;-67
2023/12/03 04:59:38;;;;;;;52.03;30.13;;;0.40;99.90;;;;;;5134044;28;20224;-68
2023/12/03 05:02:03;;;;;;;53.63;30.03;;;0.40;99.90;;;;;;5133818;28;20172;-67
2023/12/03 05:04:29;;;;;;;52.37;28.23;;;0.40;99.90;;;;;;5134343;28;20267;-68
2023/12/03 05:06:55;;;;;;;42.90;28.17;;;0.40;99.90;;;;;;5133969;28;20726;-68
2023/12/03 05:09:21;;;;;;;57.10;29.67;;;0.40;99.90;;;;;;5133870;28;20188;-67
2023/12/03 05:11:48;;;;;;;45.60;27.37;;;0.40;99.90;;;;;;5115544;28;20179;-67
2023/12/03 05:14:14;;;;;;;52.10;29.87;;;0.40;99.90;;;;;;5115389;28;20710;-68
2023/12/03 05:16:40;;;;;;;43.90;27.00;;;0.40;99.90;;;;;;5133552;28;20266;-68
2023/12/03 05:19:06;;;;;;;50.13;29.57;;;0.40;99.90;;;;;;5115385;28;20260;-67
2023/12/03 05:21:32;;;;;;;44.83;27.50;;;0.40;99.90;;;;;;5133868;28;20264;-68
2023/12/03 05:23:58;;;;;;;48.70;28.30;;;0.40;99.90;;;;;;5115396;28;20184;-68
2023/12/03 05:26:24;;;;;;;44.80;26.57;;;0.40;99.90;;;;;;5133924;28;20201;-68
2023/12/03 05:28:50;;;;;;;46.90;27.60;;;0.40;99.90;;;;;;5133724;28;20187;-68
2023/12/03 05:31:16;;;;;;;49.73;28.17;;;0.40;99.90;;;;;;5133846;28;20168;-68
2023/12/03 05:33:42;;;;;;;45.00;26.93;;;0.40;99.90;;;;;;5133728;28;20211;-68
2023/12/03 05:36:09;;;;;;;50.57;28.00;;;0.40;99.90;;;;;;5133680;28;20594;-68
2023/12/03 05:38:37;;;;;;;45.80;26.97;;;0.40;99.90;;;;;;5115227;28;20737;-68
2023/12/03 05:41:03;;;;;;;45.93;28.43;;;0.40;99.90;;;;;;5134126;28;20180;-68
2023/12/03 05:43:28;;;;;;;42.30;25.77;;;0.40;99.90;;;;;;5133847;28;20236;-68
2023/12/03 05:45:54;;;;;;;46.27;26.60;;;0.40;99.90;;;;;;5134887;27;20188;-68
2023/12/03 05:48:21;;;;;;;44.60;25.73;;;0.40;99.90;;;;;;5137394;27;20195;-68
2023/12/03 05:50:47;;;;;;;40.47;26.17;;;0.40;99.90;;;;;;5137733;27;20176;-68
2023/12/03 05:53:13;;;;;;;44.13;26.50;;;0.40;99.90;;;;;;5137511;27;20195;-68
2023/12/03 05:55:38;;;;;;;41.17;26.13;;;0.40;99.90;;;;;;5137336;27;20175;-68
2023/12/03 05:58:05;;;;;;;41.03;25.47;;;0.40;99.90;;;;;;5137444;27;20662;-68
2023/12/03 06:00:31;;;;;;;40.60;25.83;;;0.40;99.90;;;;;;5136838;27;20178;-68
2023/12/03 06:02:59;;;;;;;40.97;26.40;;;0.40;99.90;;;;;;5118684;27;20176;-68
2023/12/03 06:05:25;;;;;;;40.67;25.07;;;0.40;99.90;;;;;;5118559;27;20262;-68
2023/12/03 06:07:50;;;;;;;44.80;26.93;;;0.40;99.90;;;;;;5136927;27;20235;-67
2023/12/03 06:10:16;;;;;;;41.77;27.80;;;0.40;99.90;;;;;;5137187;27;20176;-67
2023/12/03 06:12:42;;;;;;;41.73;27.10;;;0.40;99.90;;;;;;5136935;27;20638;-68
2023/12/03 06:15:08;;;;;;;44.30;25.80;;;0.40;99.90;;;;;;5136911;27;20222;-68
2023/12/03 06:17:34;;;;;;;39.53;25.10;;;0.40;99.90;;;;;;5136611;27;20195;-68
2023/12/03 06:20:01;;;;;;;41.33;25.63;;;0.40;99.90;;;;;;5136782;27;20572;-68
2023/12/03 06:22:27;;;;;;;42.30;26.47;;;0.40;99.90;;;;;;5136786;27;20228;-68
2023/12/03 06:24:53;;;;;;;36.80;25.67;;;0.50;99.90;;;;;;5118314;27;20278;-68
2023/12/03 06:27:18;;;;;;;41.43;26.07;;;0.50;99.90;;;;;;5136765;27;20199;-68
2023/12/03 06:29:44;;;;;;;38.97;24.70;;;0.50;99.90;;;;;;5136697;27;20179;-67
2023/12/03 06:32:10;;;;;;;39.47;24.23;;;0.50;99.90;;;;;;5136261;27;20207;-68
2023/12/03 06:34:36;;;;;;;40.47;23.37;;;0.50;99.90;;;;;;5137016;27;20200;-68
2023/12/03 06:37:04;;;;;;;43.10;27.40;;;0.50;99.90;;;;;;5136461;27;20275;-68
2023/12/03 06:39:30;;;;;;;33.87;23.57;;;0.50;99.90;;;;;;5117938;27;20691;-68
2023/12/03 06:41:55;;;;;;;36.93;23.80;;;0.50;99.90;;;;;;5136418;27;20176;-68
2023/12/03 06:44:21;;;;;;;37.17;24.27;;;0.50;99.90;;;;;;5136370;27;20225;-68
2023/12/03 06:46:47;;;;;;;37.20;22.23;;;0.50;99.90;;;;;;5136368;27;20210;-68
2023/12/03 06:49:13;;;;;;;36.50;23.17;;;0.50;99.90;;;;;;5136298;27;20179;-68
2023/12/03 06:51:39;;;;;;;38.77;24.97;;;0.50;99.90;;;;;;5117872;27;20184;-68
2023/12/03 06:54:06;;;;;;;33.23;23.67;;;0.50;99.90;;;;;;5136138;27;20642;-68
2023/12/03 06:56:32;;;;;;;32.37;22.20;;;0.50;99.90;;;;;;5117644;27;20172;-68
2023/12/03 06:58:58;;;;;;;30.40;21.90;;;0.50;99.90;;;;;;5136053;27;20254;-68
2023/12/03 07:01:24;;;;;;;33.87;23.67;;;0.50;99.90;;;;;;5117791;27;20176;-68
2023/12/03 07:03:49;;;;;;;33.97;22.07;;;0.50;99.90;;;;;;5136601;27;20183;-68
2023/12/03 07:06:15;;;;;;;37.50;24.33;;;0.50;99.90;;;;;;5117694;27;20564;-68
2023/12/03 07:08:41;;;;;;;35.77;24.67;;;0.50;99.90;;;;;;5117384;27;20699;-68
2023/12/03 07:11:07;;;;;;;30.07;19.70;;;0.50;99.90;;;;;;5135917;27;20183;-68
2023/12/03 07:13:33;;;;;;;32.57;21.77;;;0.50;99.90;;;;;;5136096;27;20204;-68
2023/12/03 07:15:58;;;;;;;33.93;22.13;;;0.50;99.90;;;;;;5135715;27;20203;-68
2023/12/03 07:18:24;;;;;;;33.60;21.73;;;0.50;99.90;;;;;;5135784;27;20568;-67
2023/12/03 07:20:50;;;;;;;35.90;22.30;;;0.50;99.90;;;;;;5136230;27;20160;-68
2023/12/03 07:23:16;;;;;;;34.93;23.30;;;0.50;99.90;;;;;;5135800;27;20176;-68
2023/12/03 07:25:42;;;;;;;34.43;21.67;;;0.50;99.90;;;;;;5135741;27;20182;-68
2023/12/03 07:28:08;;;;;;;34.67;22.83;;;0.50;99.90;;;;;;5117148;27;20230;-68
2023/12/03 07:30:34;;;;;;;31.23;20.83;;;0.50;99.90;;;;;;5117113;27;20179;-68
2023/12/03 07:33:00;;;;;;;30.30;20.93;;;0.40;99.90;;;;;;5135289;27;20598;-68
2023/12/03 07:35:26;;;;;;;30.73;21.33;;;0.50;99.90;;;;;;5135528;27;20590;-68
2023/12/03 07:37:51;;;;;;;31.67;21.17;;;0.40;99.90;;;;;;5135488;27;20196;-68
2023/12/03 07:40:17;;;;;;;29.40;21.90;;;0.40;99.90;;;;;;5116952;27;20211;-67
2023/12/03 07:42:43;;;;;;;29.77;20.47;;;0.40;99.90;;;;;;5116897;27;20673;-67
2023/12/03 07:45:09;;;;;;;28.50;19.80;;;0.40;99.90;;;;;;5116719;27;20203;-67
2023/12/03 07:47:35;;;;;;;27.50;19.40;;;0.40;99.90;;;;;;5135029;27;20219;-67
2023/12/03 07:50:00;;;;;;;27.20;19.10;;;0.40;99.90;;;;;;5116968;27;20187;-67
2023/12/03 07:52:26;;;;;;;30.87;19.73;;;0.40;99.90;;;;;;5135315;27;20176;-67
2023/12/03 07:54:52;;;;;;;30.70;21.03;;;0.40;99.90;;;;;;5135179;27;20215;-67
2023/12/03 07:57:18;;;;;;;26.10;19.33;;;0.40;99.90;;;;;;5116501;27;20243;-67
2023/12/03 07:59:44;;;;;;;30.10;19.80;;;0.50;99.90;;;;;;5135348;27;20639;-67
2023/12/03 08:02:10;;;;;;;28.40;20.53;;;0.50;99.90;;;;;;5134620;27;20168;-67
2023/12/03 08:04:35;;;;;;;31.93;19.73;;;0.50;99.90;;;;;;5134771;27;20186;-67
2023/12/03 08:07:01;;;;;;;30.00;19.70;;;0.50;99.90;;;;;;5134735;27;20232;-68
2023/12/03 08:09:27;;;;;;;26.63;19.60;;;0.50;99.90;;;;;;5133690;27;20183;-67
2023/12/03 08:11:53;;;;;;;27.57;20.93;;;0.50;99.90;;;;;;5134728;27;20666;-67
2023/12/03 08:14:19;;;;;;;30.40;19.90;;;0.50;99.90;;;;;;5116113;27;20585;-67
2023/12/03 08:16:45;;;;;;;27.83;20.30;;;0.50;99.90;;;;;;5134788;27;20225;-67
2023/12/03 08:19:11;;;;;;;28.80;20.63;;;0.50;99.90;;;;;;5134675;27;20172;-67
2023/12/03 08:21:36;;;;;;;29.43;20.57;;;0.50;99.90;;;;;;5134568;27;20595;-67
2023/12/03 08:24:03;;;;;;;27.70;19.53;;;0.50;99.90;;;;;;5135151;27;20184;-67
2023/12/03 08:26:29;;;;;;;26.53;20.07;;;0.60;99.90;;;;;;5134906;27;20275;-67
2023/12/03 08:28:55;;;;;;;28.80;19.70;;;0.60;99.90;;;;;;5116079;27;20180;-67
2023/12/03 08:31:22;;;;;;;28.00;20.43;;;0.60;99.90;;;;;;5134210;27;20183;-67
2023/12/03 08:33:49;;;;;;;26.37;18.93;;;0.60;99.90;;;;;;5115933;27;20215;-68
2023/12/03 08:36:18;;;;;;;29.83;19.20;;;0.70;99.90;;;;;;5134602;27;20193;-68
2023/12/03 08:38:45;;;;;;;24.33;18.13;;;0.70;99.90;;;;;;5115781;28;20207;-67
2023/12/03 08:41:11;;;;;;;28.07;19.37;;;0.70;99.90;;;;;;5134932;27;20160;-68
2023/12/03 08:43:36;;;;;;;27.83;20.60;;;0.70;99.90;;;;;;5134186;27;20180;-68
2023/12/03 08:46:04;;;;;;;27.90;19.90;;;0.80;99.90;;;;;;5115495;28;20206;-67
2023/12/03 08:48:29;;;;;;;28.17;20.23;;;0.80;99.90;;;;;;5115576;28;20202;-67
2023/12/03 08:50:55;;;;;;;33.90;20.97;;;0.80;99.90;;;;;;5134360;27;20176;-68
2023/12/03 08:53:21;;;;;;;27.43;20.07;;;0.80;99.90;;;;;;5115620;27;20610;-67
2023/12/03 08:55:47;;;;;;;32.90;22.50;;;0.90;99.90;;;;;;5115697;28;20254;-67
2023/12/03 08:58:13;;;;;;;30.63;20.13;;;0.90;99.90;;;;;;5134006;27;20191;-67
2023/12/03 09:00:38;;;;;;;29.20;21.10;;;0.90;99.90;;;;;;5115636;28;20179;-67
2023/12/03 09:03:05;;;;;;;27.63;18.77;;;0.90;99.90;;;;;;5133753;28;20553;-67
2023/12/03 09:05:31;;;;;;;23.80;17.97;;;0.90;99.90;;;;;;5115527;28;20699;-67
2023/12/03 09:07:56;;;;;;;29.77;18.83;;;0.90;99.90;;;;;;5133863;28;20191;-67
2023/12/03 09:10:22;;;;;;;24.40;19.60;;;1.00;99.90;;;;;;5134058;28;20229;-67
2023/12/03 09:12:48;;;;;;;26.23;18.03;;;1.00;99.90;;;;;;5133869;28;20224;-67
2023/12/03 09:15:14;;;;;;;24.60;18.70;;;1.00;99.90;;;;;;5134106;28;20245;-67
2023/12/03 09:17:40;;;;;;;26.17;18.63;;;1.10;99.90;;;;;;5115053;28;20694;-67
2023/12/03 09:20:06;;;;;;;26.43;18.80;;;1.10;99.90;;;;;;5115562;27;20186;-67
2023/12/03 09:22:33;;;;;;;31.57;20.57;;;1.10;99.90;;;;;;5137353;27;20201;-67
2023/12/03 09:24:59;;;;;;;27.17;19.33;;;1.00;99.90;;;;;;5119382;27;20190;-67
2023/12/03 09:27:25;;;;;;;31.80;18.50;;;1.00;99.90;;;;;;5119338;27;20196;-67
2023/12/03 09:29:50;;;;;;;23.90;18.70;;;1.00;99.90;;;;;;5137779;27;20179;-67
2023/12/03 09:32:16;;;;;;;25.43;18.90;;;1.00;99.90;;;;;;5137513;27;20622;-67
2023/12/03 09:34:42;;;;;;;33.60;18.97;;;1.10;99.90;;;;;;5119165;27;20203;-67
2023/12/03 09:37:08;;;;;;;27.50;18.87;;;1.10;99.90;;;;;;5137846;27;20249;-67
2023/12/03 09:39:33;;;;;;;26.70;18.40;;;1.20;99.90;;;;;;5119235;27;20564;-67
2023/12/03 09:42:03;;;;;;;25.20;17.57;;;1.20;99.90;;;;;;5119205;27;20180;-68
2023/12/03 09:45:09;;;;;;;24.80;18.13;;;1.40;99.90;;;;;;5137661;27;20179;-68
2023/12/03 09:47:36;;;;;;;28.93;19.53;;;1.40;99.90;;;;;;5081370;27;20219;-67
2023/12/03 09:50:06;;;;;;;27.23;18.10;;;1.50;99.90;;;;;;5119225;27;20203;-67
2023/12/03 09:52:36;;;;;;;23.37;17.93;;;1.50;99.90;;;;;;5119239;27;20236;-67
2023/12/03 09:55:03;;;;;;;24.67;17.53;;;1.60;99.90;;;;;;5137910;27;20644;-67
2023/12/03 09:57:30;;;;;;;22.97;17.87;;;1.60;99.90;;;;;;5137670;27;20199;-67
2023/12/03 10:00:05;;;;;;;22.80;17.60;;;1.70;99.90;;;;;;5119151;27;20175;-67
2023/12/03 10:02:33;;;;;;;27.53;18.83;;;1.70;99.90;;;;;;5137490;27;20262;-66
2023/12/03 10:04:59;;;;;;;27.73;19.03;;;1.70;99.90;;;;;;5138069;27;20243;-67
2023/12/03 10:07:29;;;;;;;30.00;18.87;;;1.70;99.90;;;;;;5137751;27;20215;-68
2023/12/03 10:10:00;;;;;;;23.90;17.47;;;1.80;99.90;;;;;;5137458;27;20179;-67
2023/12/03 10:12:40;;;;;;;23.33;16.63;;;1.90;99.90;;;;;;5118911;27;20180;-67
2023/12/03 10:15:08;;;;;;;25.43;18.03;;;1.90;99.90;;;;;;5137511;27;20200;-66
2023/12/03 10:17:34;;;;;;;23.17;17.57;;;1.80;99.90;;;;;;5137005;27;20194;-66
2023/12/03 10:20:20;;;;;;;25.90;18.17;;;1.90;99.90;;;;;;5137392;27;20247;-67
2023/12/03 10:22:46;;;;;;;22.80;17.03;;;2.10;99.90;;;;;;5118498;27;20313;-67
2023/12/03 10:25:25;;;;;;;20.70;16.50;;;2.10;99.90;;;;;;5137527;27;20164;-67
2023/12/03 10:27:56;;;;;;;25.43;18.37;;;2.30;99.90;;;;;;5118661;27;20199;-67
2023/12/03 10:30:22;;;;;;;23.10;17.20;;;2.40;99.90;;;;;;5137593;27;20163;-67
2023/12/03 10:32:49;;;;;;;24.00;17.80;;;2.40;99.90;;;;;;5135580;27;20163;-67
2023/12/03 10:35:15;;;;;;;24.17;17.80;;;2.40;99.90;;;;;;5137039;27;20210;-67
2023/12/03 10:37:42;;;;;;;25.70;18.10;;;2.40;99.90;;;;;;5118253;27;20547;-67
2023/12/03 10:40:07;;;;;;;27.97;18.13;;;2.60;99.90;;;;;;5136840;27;20599;-66
2023/12/03 10:42:39;;;;;;;25.50;18.77;;;2.60;99.90;;;;;;5118404;27;20206;-68
2023/12/03 10:45:12;;;;;;;22.97;17.13;;;2.60;99.90;;;;;;5136798;27;20190;-68
2023/12/03 10:47:39;;;;;;;28.70;19.17;;;2.60;99.90;;;;;;5136328;27;20227;-68
2023/12/03 10:50:07;;;;;;;26.93;18.07;;;2.60;99.90;;;;;;5118326;27;20180;-68
2023/12/03 10:52:35;;;;;;;24.43;17.20;;;2.60;99.90;;;;;;5136902;27;20176;-67
2023/12/03 10:55:01;;;;;;;23.43;17.07;;;2.70;99.90;;;;;;5136476;27;20225;-69
2023/12/03 10:57:32;;;;;;;22.83;17.63;;;2.90;99.90;;;;;;5118183;27;20202;-67
2023/12/03 11:00:10;;;;;;;22.37;17.77;;;3.10;99.90;;;;;;5136493;27;20634;-67
2023/12/03 11:02:44;;;;;;;30.47;18.53;;;3.20;99.90;;;;;;5136206;27;20188;-67
2023/12/03 11:05:18;;;;;;;24.20;17.27;;;3.10;99.90;;;;;;5136650;27;20171;-68
2023/12/03 11:07:44;;;;;;;25.67;18.10;;;3.00;99.90;;;;;;5136312;27;20199;-68
2023/12/03 11:10:12;;;;;;;24.70;17.40;;;2.90;99.90;;;;;;5136208;27;20176;-67
2023/12/03 11:12:38;;;;;;;23.67;17.90;;;2.90;99.90;;;;;;5118188;27;20270;-68
2023/12/03 11:15:05;;;;;;;24.53;17.17;;;2.80;99.90;;;;;;5117813;27;20206;-68
2023/12/03 11:17:35;;;;;;;26.37;17.20;;;2.60;99.90;;;;;;5135946;27;20274;-68
2023/12/03 11:20:09;;;;;;;24.30;18.30;;;2.40;99.90;;;;;;5135925;27;20683;-68
2023/12/03 11:22:41;;;;;;;22.03;17.73;;;2.50;99.90;;;;;;5117465;27;20238;-68
2023/12/03 11:25:15;;;;;;;25.07;17.23;;;2.60;99.90;;;;;;5117266;27;20297;-68
2023/12/03 11:27:45;;;;;;;23.83;16.80;;;2.80;99.90;;;;;;5135724;27;20199;-69
2023/12/03 11:30:12;;;;;;;25.60;17.80;;;2.80;99.90;;;;;;5136082;27;20182;-68
2023/12/03 11:32:38;;;;;;;25.33;16.93;;;3.00;99.90;;;;;;5135643;27;20183;-68
2023/12/03 11:35:15;;;;;;;26.53;18.30;;;3.00;99.90;;;;;;5135532;27;20200;-68
2023/12/03 11:37:44;;;;;;;24.10;17.77;;;3.00;99.90;;;;;;5135760;27;20227;-69
2023/12/03 11:40:13;;;;;;;26.53;17.47;;;3.00;99.90;;;;;;5135369;27;20183;-68
2023/12/03 11:42:46;;;;;;;22.23;17.40;;;3.20;99.90;;;;;;5135383;27;20186;-69
2023/12/03 11:45:20;;;;;;;23.00;17.07;;;3.30;99.90;;;;;;5135198;27;20194;-68
2023/12/03 11:48:06;;;;;;;26.10;17.63;;;3.30;99.90;;;;;;5135557;27;20240;-68
2023/12/03 11:50:37;;;;;;;27.17;17.30;;;3.50;99.90;;;;;;5135835;27;20164;-68
2023/12/03 11:53:05;;;;;;;22.67;17.23;;;3.50;99.90;;;;;;5135698;27;20166;-68
2023/12/03 11:55:35;;;;;;;22.77;16.80;;;3.40;99.90;;;;;;5117062;27;20669;-68
2023/12/03 11:58:03;;;;;;;24.80;18.03;;;3.30;99.90;;;;;;5135084;27;20207;-68
2023/12/03 12:00:33;;;;;;;24.07;17.80;;;3.30;99.90;;;;;;5116664;27;20187;-68
2023/12/03 12:02:59;;;;;;;23.00;16.47;;;3.10;99.90;;;;;;5134618;27;20168;-68
2023/12/03 12:05:25;;;;;;;25.87;17.90;;;2.90;99.90;;;;;;5135403;27;20206;-68
2023/12/03 12:08:05;;;;;;;24.83;16.67;;;2.90;99.90;;;;;;5116543;27;20242;-68
2023/12/03 12:10:34;;;;;;;22.13;16.47;;;3.00;99.90;;;;;;5116323;27;20232;-68
2023/12/03 12:13:04;;;;;;;23.40;17.00;;;3.10;99.90;;;;;;5116417;27;20172;-68
2023/12/03 12:15:30;;;;;;;21.40;17.20;;;3.10;99.90;;;;;;5135192;27;20259;-68
2023/12/03 12:17:56;;;;;;;23.13;16.77;;;3.30;99.90;;;;;;5134406;27;20179;-68
2023/12/03 12:20:26;;;;;;;28.07;18.30;;;3.10;99.90;;;;;;5134847;27;20168;-68
2023/12/03 12:22:53;;;;;;;25.17;17.20;;;2.90;99.90;;;;;;5135083;27;20167;-68
2023/12/03 12:25:25;;;;;;;21.80;16.40;;;2.70;99.90;;;;;;5116240;27;20175;-68
2023/12/03 12:27:51;;;;;;;24.43;16.20;;;2.40;99.90;;;;;;5135267;27;20274;-68
2023/12/03 12:30:24;;;;;;;26.87;17.93;;;2.20;99.90;;;;;;5116569;27;20594;-68
2023/12/03 12:32:54;;;;;;;22.17;17.87;;;2.30;99.90;;;;;;5135077;27;20152;-69
2023/12/03 12:35:22;;;;;;;24.47;17.20;;;2.40;99.90;;;;;;5134618;27;20199;-68